COOK73 CYBX-EIKY
Flight info
| Callsign | COOK73 |
|---|---|
| Flight time | N/A |
| Altitude | 39000 |
| Route | PELTU/M076F390 DCT 53N050W 54N040W 55N030W 54N020W DCT DOGAL/N0438F390 DCT LONDU DCT BUNON |
| Aircraft | C25C/M-SDE2E3FGHRWXY/LB1 |
Departure
| Time | N/A |
|---|---|
| Airport | Lourdes-de-Blanc-Sablon Airport (CYBX) |
Arrival
| Time | 2026-04-20 23:24 |
|---|---|
| Airport | Kerry Airport (EIKY) |
| Time | Latitude | Longitude | Altitude | Speed | Heading |
|---|---|---|---|---|---|
| 2026-04-20 22:00 | 54.29031 | -22.15580 | 39206 ft | 364 kts | 101° |
| 2026-04-20 22:00 | 54.27967 | -22.07068 | 39207 ft | 367 kts | 101° |
| 2026-04-20 22:01 | 54.26889 | -21.98518 | 39213 ft | 368 kts | 101° |
| 2026-04-20 22:01 | 54.25803 | -21.89942 | 39211 ft | 369 kts | 101° |
| 2026-04-20 22:02 | 54.24704 | -21.81341 | 39213 ft | 370 kts | 101° |
| 2026-04-20 22:02 | 54.23603 | -21.72752 | 39217 ft | 370 kts | 101° |
| 2026-04-20 22:03 | 54.22490 | -21.64133 | 39229 ft | 371 kts | 101° |
| 2026-04-20 22:03 | 54.21378 | -21.55567 | 39236 ft | 372 kts | 101° |
| 2026-04-20 22:04 | 54.20248 | -21.46924 | 39230 ft | 373 kts | 101° |
| 2026-04-20 22:04 | 54.19111 | -21.38269 | 39234 ft | 374 kts | 101° |
| 2026-04-20 22:05 | 54.17964 | -21.29607 | 39236 ft | 374 kts | 102° |
| 2026-04-20 22:05 | 54.16813 | -21.20945 | 39237 ft | 375 kts | 102° |
| 2026-04-20 22:06 | 54.15651 | -21.12272 | 39236 ft | 375 kts | 102° |
| 2026-04-20 22:06 | 54.14482 | -21.03596 | 39239 ft | 375 kts | 102° |
| 2026-04-20 22:07 | 54.13308 | -20.94917 | 39243 ft | 376 kts | 102° |
| 2026-04-20 22:07 | 54.12132 | -20.86284 | 39245 ft | 376 kts | 102° |
| 2026-04-20 22:08 | 54.10942 | -20.77600 | 39242 ft | 377 kts | 102° |
| 2026-04-20 22:08 | 54.09743 | -20.68901 | 39237 ft | 377 kts | 102° |
| 2026-04-20 22:09 | 54.08538 | -20.60204 | 39248 ft | 377 kts | 102° |
| 2026-04-20 22:09 | 54.07323 | -20.51492 | 39242 ft | 377 kts | 102° |
| 2026-04-20 22:10 | 54.06104 | -20.42802 | 39248 ft | 378 kts | 102° |
| 2026-04-20 22:10 | 54.04876 | -20.34094 | 39244 ft | 378 kts | 102° |
| 2026-04-20 22:11 | 54.03651 | -20.25454 | 39239 ft | 378 kts | 102° |
| 2026-04-20 22:11 | 54.02410 | -20.16753 | 39245 ft | 379 kts | 103° |
| 2026-04-20 22:12 | 54.01159 | -20.08038 | 39249 ft | 379 kts | 103° |
| 2026-04-20 22:12 | 54.00152 | -19.99256 | 39251 ft | 379 kts | 94° |
| 2026-04-20 22:13 | 54.00205 | -19.90300 | 39255 ft | 379 kts | 88° |
| 2026-04-20 22:13 | 54.00371 | -19.81332 | 39252 ft | 380 kts | 88° |
| 2026-04-20 22:14 | 54.00544 | -19.72348 | 39258 ft | 381 kts | 88° |
| 2026-04-20 22:14 | 54.00705 | -19.63403 | 39261 ft | 381 kts | 88° |
| 2026-04-20 22:15 | 54.00861 | -19.54384 | 39259 ft | 382 kts | 88° |
| 2026-04-20 22:15 | 54.01011 | -19.45351 | 39264 ft | 383 kts | 88° |
| 2026-04-20 22:16 | 54.01155 | -19.36302 | 39264 ft | 383 kts | 88° |
| 2026-04-20 22:16 | 54.01291 | -19.27223 | 39267 ft | 384 kts | 88° |
| 2026-04-20 22:17 | 54.01422 | -19.18132 | 39268 ft | 385 kts | 89° |
| 2026-04-20 22:17 | 54.01546 | -19.09014 | 39266 ft | 386 kts | 89° |
| 2026-04-20 22:18 | 54.01663 | -18.99882 | 39268 ft | 387 kts | 89° |
| 2026-04-20 22:18 | 54.01774 | -18.90722 | 39268 ft | 388 kts | 89° |
| 2026-04-20 22:19 | 54.01877 | -18.81541 | 39265 ft | 389 kts | 89° |
| 2026-04-20 22:19 | 54.01973 | -18.72401 | 39268 ft | 389 kts | 89° |
| 2026-04-20 22:20 | 54.02064 | -18.63182 | 39272 ft | 390 kts | 89° |
| 2026-04-20 22:20 | 54.02147 | -18.53938 | 39273 ft | 391 kts | 89° |
| 2026-04-20 22:21 | 54.02223 | -18.44682 | 39273 ft | 392 kts | 89° |
| 2026-04-20 22:21 | 54.02293 | -18.35411 | 39275 ft | 392 kts | 89° |
| 2026-04-20 22:22 | 54.02355 | -18.26118 | 39275 ft | 393 kts | 89° |
| 2026-04-20 22:22 | 54.02410 | -18.16807 | 39280 ft | 394 kts | 89° |
| 2026-04-20 22:23 | 54.02458 | -18.07477 | 39281 ft | 395 kts | 89° |
| 2026-04-20 22:23 | 54.02499 | -17.98198 | 39287 ft | 395 kts | 89° |
| 2026-04-20 22:24 | 54.02532 | -17.88844 | 39292 ft | 396 kts | 89° |
| 2026-04-20 22:24 | 54.02559 | -17.79464 | 39293 ft | 397 kts | 89° |
| 2026-04-20 22:25 | 54.02578 | -17.70063 | 39293 ft | 397 kts | 89° |
| 2026-04-20 22:25 | 54.02590 | -17.60658 | 39291 ft | 398 kts | 89° |
| 2026-04-20 22:26 | 54.02595 | -17.51240 | 39296 ft | 398 kts | 90° |
| 2026-04-20 22:26 | 54.02592 | -17.41808 | 39299 ft | 399 kts | 89° |
| 2026-04-20 22:27 | 54.02574 | -17.27630 | 39300 ft | 400 kts | 90° |
| 2026-04-20 22:27 | 54.02553 | -17.18172 | 39302 ft | 400 kts | 90° |
| 2026-04-20 22:28 | 54.02524 | -17.08694 | 39302 ft | 401 kts | 90° |
| 2026-04-20 22:28 | 54.02488 | -16.99216 | 39308 ft | 401 kts | 90° |
| 2026-04-20 22:29 | 54.02444 | -16.89801 | 39306 ft | 401 kts | 90° |
| 2026-04-20 22:29 | 54.02394 | -16.80303 | 39304 ft | 401 kts | 90° |
| 2026-04-20 22:30 | 54.02335 | -16.70806 | 39303 ft | 401 kts | 90° |
| 2026-04-20 22:30 | 54.02269 | -16.61319 | 39307 ft | 401 kts | 90° |
| 2026-04-20 22:31 | 54.02195 | -16.51822 | 39305 ft | 401 kts | 90° |
| 2026-04-20 22:31 | 54.02114 | -16.42329 | 39305 ft | 401 kts | 90° |
| 2026-04-20 22:32 | 54.02026 | -16.32824 | 39305 ft | 402 kts | 90° |
| 2026-04-20 22:32 | 54.01929 | -16.23326 | 39308 ft | 402 kts | 91° |
| 2026-04-20 22:33 | 54.01826 | -16.13877 | 39307 ft | 402 kts | 91° |
| 2026-04-20 22:33 | 54.01715 | -16.04377 | 39307 ft | 402 kts | 91° |
| 2026-04-20 22:34 | 54.01597 | -15.94865 | 39302 ft | 402 kts | 91° |
| 2026-04-20 22:34 | 54.01470 | -15.85362 | 39308 ft | 402 kts | 91° |
| 2026-04-20 22:35 | 54.01336 | -15.75852 | 39308 ft | 402 kts | 91° |
| 2026-04-20 22:35 | 54.01196 | -15.66360 | 39308 ft | 402 kts | 91° |
| 2026-04-20 22:36 | 54.01047 | -15.56858 | 39307 ft | 402 kts | 91° |
| 2026-04-20 22:36 | 54.00918 | -15.48966 | 39307 ft | 402 kts | 92° |
| 2026-04-20 22:37 | 54.00728 | -15.37915 | 39304 ft | 402 kts | 92° |
| 2026-04-20 22:37 | 54.00558 | -15.28419 | 39303 ft | 402 kts | 92° |
| 2026-04-20 22:38 | 54.00409 | -15.20524 | 39302 ft | 402 kts | 92° |
| 2026-04-20 22:38 | 54.00225 | -15.11023 | 39305 ft | 402 kts | 92° |
| 2026-04-20 22:39 | 53.99400 | -15.01658 | 39298 ft | 402 kts | 107° |
| 2026-04-20 22:39 | 53.97101 | -14.93033 | 39294 ft | 402 kts | 122° |
| 2026-04-20 22:40 | 53.93899 | -14.85258 | 39298 ft | 402 kts | 125° |
| 2026-04-20 22:40 | 53.90688 | -14.77500 | 39297 ft | 402 kts | 125° |
| 2026-04-20 22:41 | 53.87461 | -14.69764 | 39295 ft | 402 kts | 125° |
| 2026-04-20 22:41 | 53.84236 | -14.62039 | 39293 ft | 402 kts | 125° |
| 2026-04-20 22:42 | 53.81004 | -14.54330 | 39293 ft | 401 kts | 125° |
| 2026-04-20 22:42 | 53.77788 | -14.46678 | 39291 ft | 401 kts | 125° |
| 2026-04-20 22:43 | 53.74549 | -14.38996 | 39289 ft | 401 kts | 126° |
| 2026-04-20 22:43 | 53.71305 | -14.31329 | 39287 ft | 401 kts | 126° |
| 2026-04-20 22:44 | 53.68058 | -14.23675 | 39286 ft | 401 kts | 126° |
| 2026-04-20 22:44 | 53.64808 | -14.16036 | 39283 ft | 401 kts | 126° |
| 2026-04-20 22:45 | 53.61553 | -14.08408 | 39281 ft | 400 kts | 126° |
| 2026-04-20 22:45 | 53.58296 | -14.00802 | 39278 ft | 400 kts | 126° |
| 2026-04-20 22:46 | 53.55032 | -13.93201 | 39280 ft | 400 kts | 126° |
| 2026-04-20 22:46 | 53.51768 | -13.85621 | 39274 ft | 400 kts | 126° |
| 2026-04-20 22:47 | 53.48503 | -13.78064 | 39272 ft | 400 kts | 126° |
| 2026-04-20 22:47 | 53.45232 | -13.70514 | 39271 ft | 400 kts | 126° |
| 2026-04-20 22:48 | 53.41980 | -13.63034 | 39267 ft | 399 kts | 126° |
| 2026-04-20 22:48 | 53.38700 | -13.55510 | 39266 ft | 399 kts | 127° |
| 2026-04-20 22:49 | 53.35420 | -13.48005 | 39260 ft | 399 kts | 127° |
| 2026-04-20 22:49 | 53.32136 | -13.40516 | 39261 ft | 399 kts | 127° |
| 2026-04-20 22:50 | 53.28852 | -13.33048 | 39255 ft | 398 kts | 127° |
| 2026-04-20 22:50 | 53.25561 | -13.25589 | 39250 ft | 398 kts | 127° |
| 2026-04-20 22:51 | 53.22295 | -13.18204 | 39251 ft | 398 kts | 127° |
| 2026-04-20 22:51 | 53.19005 | -13.10790 | 39252 ft | 398 kts | 127° |
| 2026-04-20 22:52 | 53.15707 | -13.03380 | 39248 ft | 397 kts | 127° |
| 2026-04-20 22:52 | 53.12411 | -12.95993 | 39246 ft | 397 kts | 127° |
| 2026-04-20 22:53 | 53.09112 | -12.88623 | 39248 ft | 397 kts | 128° |
| 2026-04-20 22:53 | 53.05807 | -12.81262 | 39243 ft | 397 kts | 128° |
| 2026-04-20 22:54 | 53.02457 | -12.73817 | 39247 ft | 406 kts | 124° |
| 2026-04-20 22:54 | 52.99061 | -12.66298 | 39240 ft | 413 kts | 125° |
| 2026-04-20 22:55 | 52.95584 | -12.58623 | 39243 ft | 417 kts | 125° |
| 2026-04-20 22:55 | 52.92281 | -12.50674 | 39235 ft | 418 kts | 116° |
| 2026-04-20 22:56 | 52.90264 | -12.41686 | 39241 ft | 417 kts | 103° |
| 2026-04-20 22:56 | 52.88686 | -12.32412 | 39247 ft | 419 kts | 103° |
| 2026-04-20 22:57 | 52.87889 | -12.27752 | 39057 ft | 423 kts | 103° |
| 2026-04-20 22:57 | 52.87102 | -12.23146 | 38486 ft | 420 kts | 103° |
| 2026-04-20 22:57 | 52.86309 | -12.18515 | 37926 ft | 416 kts | 104° |
| 2026-04-20 22:57 | 52.85519 | -12.13923 | 37385 ft | 414 kts | 104° |
| 2026-04-20 22:58 | 52.84731 | -12.09353 | 36839 ft | 412 kts | 104° |
| 2026-04-20 22:58 | 52.83946 | -12.04813 | 36306 ft | 410 kts | 104° |
| 2026-04-20 22:58 | 52.83161 | -12.00273 | 35767 ft | 410 kts | 104° |
| 2026-04-20 22:58 | 52.82372 | -11.95737 | 35232 ft | 410 kts | 105° |
| 2026-04-20 22:59 | 52.81582 | -11.91196 | 34695 ft | 411 kts | 105° |
| 2026-04-20 22:59 | 52.80788 | -11.86656 | 34142 ft | 412 kts | 105° |
| 2026-04-20 22:59 | 52.79991 | -11.82101 | 33566 ft | 412 kts | 105° |
| 2026-04-20 22:59 | 52.79193 | -11.77553 | 33025 ft | 412 kts | 105° |
| 2026-04-20 23:00 | 52.78392 | -11.73009 | 32483 ft | 412 kts | 106° |
| 2026-04-20 23:00 | 52.77591 | -11.68458 | 31943 ft | 412 kts | 106° |
| 2026-04-20 23:00 | 52.76785 | -11.63910 | 31399 ft | 413 kts | 106° |
| 2026-04-20 23:00 | 52.75978 | -11.59353 | 30854 ft | 414 kts | 106° |
| 2026-04-20 23:01 | 52.75168 | -11.54791 | 30310 ft | 415 kts | 106° |
| 2026-04-20 23:01 | 52.74349 | -11.50202 | 29717 ft | 415 kts | 106° |
| 2026-04-20 23:01 | 52.73536 | -11.45645 | 29169 ft | 414 kts | 106° |
| 2026-04-20 23:01 | 52.72730 | -11.41157 | 28626 ft | 412 kts | 106° |
| 2026-04-20 23:02 | 52.71919 | -11.36628 | 28087 ft | 411 kts | 106° |
| 2026-04-20 23:02 | 52.71116 | -11.32178 | 28010 ft | 398 kts | 106° |
| 2026-04-20 23:02 | 52.70342 | -11.27878 | 28005 ft | 385 kts | 106° |
| 2026-04-20 23:02 | 52.69587 | -11.23704 | 28005 ft | 374 kts | 106° |
| 2026-04-20 23:03 | 52.68850 | -11.19643 | 27957 ft | 366 kts | 106° |
| 2026-04-20 23:03 | 52.68118 | -11.15607 | 27567 ft | 370 kts | 107° |
| 2026-04-20 23:03 | 52.67370 | -11.11503 | 27035 ft | 377 kts | 106° |
| 2026-04-20 23:03 | 52.66610 | -11.07337 | 26480 ft | 383 kts | 107° |
| 2026-04-20 23:04 | 52.65836 | -11.03099 | 25923 ft | 388 kts | 106° |
| 2026-04-20 23:04 | 52.65052 | -10.98830 | 25377 ft | 391 kts | 106° |
| 2026-04-20 23:04 | 52.64262 | -10.94521 | 24833 ft | 393 kts | 106° |
| 2026-04-20 23:04 | 52.63475 | -10.90258 | 24306 ft | 395 kts | 106° |
| 2026-04-20 23:05 | 52.62680 | -10.85935 | 23766 ft | 395 kts | 106° |
| 2026-04-20 23:05 | 52.61877 | -10.81610 | 23196 ft | 394 kts | 106° |
| 2026-04-20 23:05 | 52.61081 | -10.77306 | 22707 ft | 391 kts | 107° |
| 2026-04-20 23:05 | 52.60288 | -10.73050 | 22217 ft | 388 kts | 107° |
| 2026-04-20 23:06 | 52.59502 | -10.68825 | 21720 ft | 385 kts | 107° |
| 2026-04-20 23:06 | 52.58718 | -10.64630 | 21243 ft | 382 kts | 107° |
| 2026-04-20 23:06 | 52.57939 | -10.60467 | 20764 ft | 380 kts | 107° |
| 2026-04-20 23:06 | 52.57162 | -10.56320 | 20283 ft | 378 kts | 107° |
| 2026-04-20 23:07 | 52.56387 | -10.52204 | 19799 ft | 376 kts | 107° |
| 2026-04-20 23:07 | 52.55618 | -10.48111 | 19326 ft | 374 kts | 107° |
| 2026-04-20 23:07 | 52.54848 | -10.44048 | 18852 ft | 371 kts | 107° |
| 2026-04-20 23:07 | 52.54086 | -10.40006 | 18363 ft | 369 kts | 107° |
| 2026-04-20 23:08 | 52.53324 | -10.36001 | 17680 ft | 369 kts | 107° |
| 2026-04-20 23:08 | 52.52568 | -10.32008 | 17384 ft | 360 kts | 107° |
| 2026-04-20 23:08 | 52.51827 | -10.28124 | 17011 ft | 354 kts | 107° |
| 2026-04-20 23:08 | 52.51093 | -10.24275 | 16577 ft | 352 kts | 108° |
| 2026-04-20 23:09 | 52.50362 | -10.20455 | 16139 ft | 349 kts | 107° |
| 2026-04-20 23:09 | 52.49646 | -10.16716 | 15697 ft | 347 kts | 108° |
| 2026-04-20 23:09 | 52.48923 | -10.12945 | 15252 ft | 346 kts | 107° |
| 2026-04-20 23:09 | 52.48200 | -10.09195 | 14815 ft | 344 kts | 108° |
| 2026-04-20 23:10 | 52.47486 | -10.05479 | 14381 ft | 336 kts | 107° |
| 2026-04-20 23:10 | 52.46796 | -10.01907 | 14036 ft | 320 kts | 108° |
| 2026-04-20 23:10 | 52.46137 | -9.98490 | 13602 ft | 306 kts | 108° |
| 2026-04-20 23:10 | 52.45507 | -9.95254 | 13385 ft | 291 kts | 108° |
| 2026-04-20 23:11 | 52.44905 | -9.92134 | 13084 ft | 283 kts | 108° |
| 2026-04-20 23:11 | 52.44309 | -9.89088 | 12755 ft | 277 kts | 108° |
| 2026-04-20 23:11 | 52.43728 | -9.86091 | 12416 ft | 274 kts | 108° |
| 2026-04-20 23:11 | 52.43150 | -9.83138 | 12079 ft | 271 kts | 108° |
| 2026-04-20 23:12 | 52.42578 | -9.80195 | 11728 ft | 270 kts | 108° |
| 2026-04-20 23:12 | 52.42003 | -9.77265 | 11374 ft | 270 kts | 108° |
| 2026-04-20 23:12 | 52.41431 | -9.74347 | 11014 ft | 269 kts | 108° |
| 2026-04-20 23:12 | 52.40857 | -9.71424 | 10651 ft | 269 kts | 108° |
| 2026-04-20 23:13 | 52.40294 | -9.68555 | 10313 ft | 268 kts | 109° |
| 2026-04-20 23:13 | 52.39722 | -9.65650 | 9942 ft | 267 kts | 109° |
| 2026-04-20 23:13 | 52.39109 | -9.62799 | 9582 ft | 264 kts | 117° |
| 2026-04-20 23:13 | 52.37896 | -9.60602 | 9232 ft | 262 kts | 144° |
| 2026-04-20 23:14 | 52.36229 | -9.59487 | 8887 ft | 261 kts | 171° |
| 2026-04-20 23:14 | 52.34426 | -9.59698 | 8541 ft | 262 kts | 197° |
| 2026-04-20 23:14 | 52.32860 | -9.61215 | 8197 ft | 264 kts | 219° |
| 2026-04-20 23:14 | 52.31504 | -9.63209 | 7860 ft | 259 kts | 221° |
| 2026-04-20 23:15 | 52.30206 | -9.65197 | 7531 ft | 252 kts | 221° |
| 2026-04-20 23:15 | 52.28931 | -9.67118 | 7191 ft | 247 kts | 220° |
| 2026-04-20 23:15 | 52.27662 | -9.68977 | 6864 ft | 244 kts | 220° |
| 2026-04-20 23:15 | 52.26421 | -9.70836 | 6534 ft | 240 kts | 220° |
| 2026-04-20 23:16 | 52.25189 | -9.72655 | 6210 ft | 237 kts | 220° |
| 2026-04-20 23:16 | 52.23977 | -9.74448 | 5901 ft | 233 kts | 220° |
| 2026-04-20 23:16 | 52.22776 | -9.76225 | 5580 ft | 233 kts | 220° |
| 2026-04-20 23:16 | 52.21579 | -9.77998 | 5281 ft | 232 kts | 220° |
| 2026-04-20 23:17 | 52.20396 | -9.79740 | 4993 ft | 232 kts | 219° |
| 2026-04-20 23:17 | 52.19193 | -9.81520 | 4672 ft | 235 kts | 219° |
| 2026-04-20 23:17 | 52.17946 | -9.83287 | 4167 ft | 240 kts | 212° |
| 2026-04-20 23:17 | 52.16398 | -9.84081 | 3820 ft | 229 kts | 180° |
| 2026-04-20 23:18 | 52.14920 | -9.83703 | 3677 ft | 206 kts | 158° |
| 2026-04-20 23:18 | 52.13672 | -9.82729 | 3522 ft | 196 kts | 138° |
| 2026-04-20 23:18 | 52.12875 | -9.80978 | 3324 ft | 194 kts | 115° |
| 2026-04-20 23:18 | 52.12668 | -9.78890 | 3169 ft | 179 kts | 89° |
| 2026-04-20 23:19 | 52.12953 | -9.77028 | 2943 ft | 158 kts | 75° |
| 2026-04-20 23:19 | 52.13266 | -9.75535 | 2797 ft | 124 kts | 77° |
| 2026-04-20 23:19 | 52.13534 | -9.74294 | 2646 ft | 110 kts | 77° |
| 2026-04-20 23:19 | 52.13764 | -9.73149 | 2537 ft | 106 kts | 75° |
| 2026-04-20 23:20 | 52.14003 | -9.72011 | 2463 ft | 110 kts | 78° |
| 2026-04-20 23:20 | 52.14258 | -9.70744 | 2310 ft | 122 kts | 79° |
| 2026-04-20 23:20 | 52.14524 | -9.69509 | 2165 ft | 109 kts | 75° |
| 2026-04-20 23:20 | 52.14757 | -9.68374 | 2052 ft | 105 kts | 78° |
| 2026-04-20 23:21 | 52.14999 | -9.67254 | 1948 ft | 106 kts | 76° |
| 2026-04-20 23:21 | 52.15228 | -9.66085 | 1778 ft | 109 kts | 75° |
| 2026-04-20 23:21 | 52.15473 | -9.64934 | 1619 ft | 106 kts | 76° |
| 2026-04-20 23:21 | 52.15708 | -9.63796 | 1463 ft | 106 kts | 74° |
| 2026-04-20 23:22 | 52.15939 | -9.62690 | 1326 ft | 103 kts | 75° |
| 2026-04-20 23:22 | 52.16173 | -9.61592 | 1171 ft | 103 kts | 73° |
| 2026-04-20 23:22 | 52.16403 | -9.60488 | 1023 ft | 102 kts | 74° |
| 2026-04-20 23:22 | 52.16629 | -9.59386 | 857 ft | 103 kts | 72° |
| 2026-04-20 23:23 | 52.16857 | -9.58286 | 733 ft | 104 kts | 72° |
| 2026-04-20 23:23 | 52.17090 | -9.57183 | 565 ft | 99 kts | 73° |
| 2026-04-20 23:23 | 52.17307 | -9.56143 | 423 ft | 96 kts | 72° |
| 2026-04-20 23:23 | 52.17519 | -9.55121 | 288 ft | 93 kts | 72° |
| 2026-04-20 23:24 | 52.17707 | -9.54169 | 150 ft | 85 kts | 71° |
| 2026-04-20 23:24 | 52.17910 | -9.53269 | 111 ft | 82 kts | 72° |
| 2026-04-20 23:24 | 52.18020 | -9.52673 | 107 ft | 14 kts | 78° |
| 2026-04-20 23:24 | 52.18049 | -9.52541 | 104 ft | 10 kts | 2° |
| 2026-04-20 23:25 | 52.18040 | -9.52615 | 106 ft | 12 kts | 250° |
| 2026-04-20 23:25 | 52.18001 | -9.52800 | 108 ft | 22 kts | 253° |
| 2026-04-20 23:25 | 52.17951 | -9.53045 | 105 ft | 23 kts | 250° |
| 2026-04-20 23:25 | 52.17907 | -9.53249 | 104 ft | 16 kts | 251° |
| 2026-04-20 23:26 | 52.17874 | -9.53416 | 104 ft | 11 kts | 252° |
| 2026-04-20 23:26 | 52.17867 | -9.53542 | 107 ft | 12 kts | 315° |
| 2026-04-20 23:26 | 52.17949 | -9.53598 | 107 ft | 14 kts | 342° |
| 2026-04-20 23:26 | 52.18004 | -9.53630 | 108 ft | 0 kts | 333° |
| 2026-04-20 23:27 | 52.18041 | -9.53664 | 105 ft | 8 kts | 329° |
| 2026-04-20 23:27 | 52.18063 | -9.53700 | 104 ft | 7 kts | 293° |
| 2026-04-20 23:27 | 52.18093 | -9.53765 | 106 ft | 8 kts | 314° |
| 2026-04-20 23:27 | 52.18095 | -9.53769 | 107 ft | 0 kts | 314° |